Time;durP1;ratioP1;P1;durP2;ratioP2;P2;SDS_P1;SDS_P2;PMS_P1;PMS_P2;Temp;Humidity;BMP_temperature;BMP_pressure;BME280_temperature;BME280_humidity;BME280_pressure;Samples;Min_cycle;Max_cycle;Signal;HPM_P1;HPM_P2
2021/01/13 00:00:45;;;;;;;3.78;1.75;;;12.10;99.90;;;;;;5310303;27;20055;-86
2021/01/13 00:03:13;;;;;;;2.08;1.58;;;12.10;99.90;;;;;;5304172;27;20449;-86
2021/01/13 00:05:41;;;;;;;6.62;1.92;;;12.20;99.90;;;;;;5304622;27;20036;-86
2021/01/13 00:08:11;;;;;;;4.57;1.83;;;12.30;99.90;;;;;;5308714;27;20025;-87
2021/01/13 00:10:39;;;;;;;5.68;1.85;;;12.40;99.90;;;;;;5289384;27;20055;-86
2021/01/13 00:13:07;;;;;;;2.95;1.95;;;12.60;99.90;;;;;;5313454;27;20438;-86
2021/01/13 00:15:35;;;;;;;4.25;1.67;;;12.60;99.90;;;;;;5315075;27;20029;-86
2021/01/13 00:18:03;;;;;;;4.03;1.55;;;12.60;99.90;;;;;;5313546;27;20049;-85
2021/01/13 00:20:31;;;;;;;4.68;1.60;;;12.50;99.90;;;;;;5292496;27;20024;-86
2021/01/13 00:23:01;;;;;;;3.47;1.77;;;12.50;99.90;;;;;;5294425;27;20025;-86
2021/01/13 00:25:29;;;;;;;4.53;1.77;;;12.50;99.90;;;;;;5309919;27;20025;-86
2021/01/13 00:27:58;;;;;;;4.10;1.95;;;12.60;99.90;;;;;;5288917;27;20062;-86
2021/01/13 00:30:25;;;;;;;5.45;2.12;;;12.50;99.90;;;;;;5306895;27;20080;-86
2021/01/13 00:32:59;;;;;;;7.03;2.62;;;12.50;99.90;;;;;;5310888;27;20041;-86
2021/01/13 00:35:27;;;;;;;7.47;2.10;;;12.50;99.90;;;;;;5286037;27;20040;-87
2021/01/13 00:37:55;;;;;;;5.18;2.50;;;12.60;99.90;;;;;;5287921;27;20044;-86
2021/01/13 00:40:23;;;;;;;5.32;2.87;;;12.50;99.90;;;;;;5308932;27;20025;-86
2021/01/13 00:42:51;;;;;;;3.50;2.05;;;12.70;99.90;;;;;;5289522;27;20049;-86
2021/01/13 00:45:19;;;;;;;3.20;2.30;;;12.70;99.90;;;;;;5292605;27;20039;-87
2021/01/13 00:47:51;;;;;;;3.85;2.12;;;12.60;99.90;;;;;;5309699;27;20605;-86
2021/01/13 00:50:20;;;;;;;2.45;2.22;;;12.60;99.90;;;;;;5309814;27;20048;-87
2021/01/13 00:52:50;;;;;;;2.40;2.20;;;12.60;99.90;;;;;;5307591;27;20036;-87
2021/01/13 00:55:19;;;;;;;5.47;2.55;;;12.50;99.90;;;;;;5289431;27;20063;-86
2021/01/13 00:57:51;;;;;;;6.37;2.10;;;12.80;99.90;;;;;;5308522;27;20062;-87
2021/01/13 01:00:20;;;;;;;3.87;2.25;;;12.70;99.90;;;;;;5312509;27;20651;-86
2021/01/13 01:02:53;;;;;;;4.75;2.60;;;12.70;99.90;;;;;;5289197;27;20056;-87
2021/01/13 01:05:23;;;;;;;3.85;2.10;;;12.70;99.90;;;;;;5310386;27;20373;-86
2021/01/13 01:07:51;;;;;;;6.20;2.33;;;12.60;99.90;;;;;;5308118;27;20036;-86
2021/01/13 01:10:30;;;;;;;5.18;2.50;;;12.70;99.90;;;;;;5307799;27;20065;-86
2021/01/13 01:13:00;;;;;;;5.97;2.67;;;12.70;99.90;;;;;;5288979;27;20035;-86
2021/01/13 01:15:28;;;;;;;4.25;2.20;;;12.60;99.90;;;;;;5309610;27;20059;-86
2021/01/13 01:17:56;;;;;;;3.78;2.35;;;12.50;99.90;;;;;;5308542;27;20076;-87
2021/01/13 01:20:25;;;;;;;2.70;2.28;;;12.50;99.90;;;;;;5311358;27;20056;-86
2021/01/13 01:22:56;;;;;;;4.30;2.35;;;12.40;99.90;;;;;;5309708;27;20325;-87
2021/01/13 01:25:26;;;;;;;3.05;2.40;;;12.30;99.90;;;;;;5289493;27;20105;-86
2021/01/13 01:27:57;;;;;;;3.87;2.20;;;12.20;99.90;;;;;;5271237;27;20074;-86
2021/01/13 01:30:28;;;;;;;6.30;2.40;;;12.10;99.90;;;;;;5309491;27;20029;-87
2021/01/13 01:32:57;;;;;;;3.12;2.30;;;12.30;99.90;;;;;;5307092;27;20041;-86
2021/01/13 01:35:25;;;;;;;4.70;2.60;;;12.10;99.90;;;;;;5310017;27;20104;-86
2021/01/13 01:37:53;;;;;;;4.70;2.97;;;12.10;99.90;;;;;;5308546;27;20039;-86
2021/01/13 01:40:23;;;;;;;3.78;2.85;;;12.10;99.90;;;;;;5310311;27;20049;-86
2021/01/13 01:42:53;;;;;;;3.03;2.67;;;12.10;99.90;;;;;;5310608;27;20380;-86
2021/01/13 01:45:24;;;;;;;3.55;3.00;;;12.00;99.90;;;;;;5288530;27;20091;-86
2021/01/13 01:47:59;;;;;;;5.78;3.15;;;12.20;99.90;;;;;;5289285;27;20063;-86
2021/01/13 01:50:34;;;;;;;6.40;3.12;;;12.10;99.90;;;;;;5290965;27;20373;-87
2021/01/13 01:53:02;;;;;;;6.15;3.33;;;12.10;99.90;;;;;;5293728;27;20073;-86
2021/01/13 01:55:43;;;;;;;4.65;3.55;;;12.10;99.90;;;;;;5307004;27;20032;-86
2021/01/13 01:58:11;;;;;;;6.18;3.58;;;12.40;99.90;;;;;;5306715;27;20134;-86
2021/01/13 02:00:40;;;;;;;8.80;3.45;;;12.50;99.90;;;;;;5307981;27;20412;-86
2021/01/13 02:03:13;;;;;;;5.90;3.33;;;12.60;99.90;;;;;;5291937;27;20067;-86
2021/01/13 02:05:43;;;;;;;6.22;3.87;;;12.70;99.90;;;;;;5313321;27;20442;-86
2021/01/13 02:08:21;;;;;;;6.15;3.80;;;12.70;99.90;;;;;;5294223;27;20426;-86
2021/01/13 02:10:51;;;;;;;7.43;3.17;;;12.70;99.90;;;;;;5312093;27;20029;-86
2021/01/13 02:13:19;;;;;;;3.78;2.85;;;12.60;99.90;;;;;;5307236;27;20383;-86
2021/01/13 02:15:49;;;;;;;4.15;3.20;;;12.70;99.90;;;;;;5307491;27;20037;-87
2021/01/13 02:18:22;;;;;;;3.70;2.78;;;12.80;99.90;;;;;;5309765;27;20399;-87
2021/01/13 02:20:54;;;;;;;6.15;2.60;;;12.90;99.90;;;;;;5313088;27;20048;-86
2021/01/13 02:23:31;;;;;;;6.70;2.97;;;12.90;99.90;;;;;;5290423;27;20048;-87
2021/01/13 02:26:24;;;;;;;5.32;2.42;;;12.90;99.90;;;;;;5294306;27;20461;-86
2021/01/13 02:29:04;;;;;;;3.85;2.22;;;13.00;99.90;;;;;;5311148;27;20033;-85
2021/01/13 02:31:44;;;;;;;3.92;1.90;;;13.00;99.90;;;;;;5310865;27;20040;-86
2021/01/13 02:34:20;;;;;;;4.12;2.47;;;13.00;99.90;;;;;;5293882;27;20057;-86
2021/01/13 02:37:20;;;;;;;3.45;2.12;;;13.10;99.90;;;;;;5313698;27;20474;-88
2021/01/13 02:39:51;;;;;;;4.50;2.22;;;13.10;99.90;;;;;;5313093;27;20029;-87
2021/01/13 02:42:28;;;;;;;3.65;2.12;;;13.10;99.90;;;;;;5309488;27;20024;-86
2021/01/13 02:45:09;;;;;;;6.18;1.83;;;13.10;99.90;;;;;;5292166;27;20341;-86
2021/01/13 02:47:57;;;;;;;4.50;2.20;;;13.10;99.90;;;;;;5313257;27;20051;-86
2021/01/13 02:50:29;;;;;;;2.62;2.00;;;13.10;99.90;;;;;;5314317;27;20056;-87
2021/01/13 02:53:09;;;;;;;3.75;1.98;;;13.20;99.90;;;;;;5309205;27;20024;-85
2021/01/13 02:55:47;;;;;;;3.05;1.80;;;13.20;99.90;;;;;;5297635;27;20025;-86
2021/01/13 02:58:38;;;;;;;3.87;1.67;;;13.10;99.90;;;;;;5311597;27;20028;-86
2021/01/13 03:01:09;;;;;;;3.15;1.73;;;13.30;99.90;;;;;;5311562;27;20035;-86
2021/01/13 03:03:37;;;;;;;2.83;1.92;;;13.40;99.90;;;;;;5313034;27;20019;-86
2021/01/13 03:06:10;;;;;;;4.72;1.83;;;13.40;99.90;;;;;;5295700;27;20031;-86
2021/01/13 03:09:10;;;;;;;4.05;1.60;;;13.30;99.90;;;;;;5295191;27;20069;-86
2021/01/13 03:11:41;;;;;;;4.25;1.75;;;13.20;99.90;;;;;;5327528;27;20077;-93
2021/01/13 03:14:15;;;;;;;2.22;1.77;;;13.10;99.90;;;;;;5302419;27;20001;-93
2021/01/13 03:17:37;;;;;;;22.70;3.10;;;13.00;99.90;;;;;;5295244;27;20033;-95
2021/01/13 03:20:30;;;;;;;4.32;1.58;;;12.70;99.90;;;;;;5213181;27;20129;-95
2021/01/13 03:23:10;;;;;;;5.60;2.12;;;13.00;99.90;;;;;;5285282;27;20033;-95
2021/01/13 03:25:54;;;;;;;2.28;2.05;;;13.10;99.90;;;;;;5287806;27;20032;-94
2021/01/13 03:28:24;;;;;;;2.22;1.87;;;12.70;99.90;;;;;;5286370;27;20024;-93
2021/01/13 03:30:59;;;;;;;2.95;1.90;;;12.80;99.90;;;;;;5285452;27;20077;-96
2021/01/13 03:33:57;;;;;;;4.18;1.77;;;12.80;99.90;;;;;;5286560;27;20105;-94
2021/01/13 03:36:55;;;;;;;4.82;1.80;;;12.70;99.90;;;;;;5286120;27;20025;-94
2021/01/13 03:39:24;;;;;;;6.30;1.90;;;12.70;99.90;;;;;;5263183;27;20080;-94
2021/01/13 03:42:06;;;;;;;3.00;1.80;;;12.50;99.90;;;;;;5276951;27;20029;-94
2021/01/13 03:44:36;;;;;;;3.15;2.15;;;12.40;99.90;;;;;;5260053;27;20041;-95
2021/01/13 03:47:41;;;;;;;3.78;2.08;;;12.50;99.90;;;;;;5277749;27;20040;-94
2021/01/13 03:50:24;;;;;;;1.62;1.37;;;12.40;99.90;;;;;;5260402;27;20036;-94
2021/01/13 03:53:05;;;;;;;3.08;1.70;;;12.30;99.90;;;;;;5258464;27;20025;-94
2021/01/13 03:55:36;;;;;;;4.65;2.00;;;12.20;99.90;;;;;;5259003;27;20067;-95
2021/01/13 03:58:35;;;;;;;3.80;1.77;;;12.40;99.90;;;;;;5260899;27;20063;-96
2021/01/13 04:01:21;;;;;;;2.60;1.83;;;12.40;99.90;;;;;;5282586;27;20130;-94
2021/01/13 04:04:08;;;;;;;6.15;1.90;;;12.60;99.90;;;;;;5261487;27;20046;-94
2021/01/13 04:06:44;;;;;;;2.50;1.92;;;12.50;99.90;;;;;;5262024;27;20067;-95
2021/01/13 04:09:18;;;;;;;3.75;1.70;;;12.50;99.90;;;;;;5258501;27;20124;-95
2021/01/13 04:11:50;;;;;;;4.35;1.92;;;12.40;99.90;;;;;;5259356;27;20442;-94
2021/01/13 04:14:19;;;;;;;5.10;2.03;;;12.50;99.90;;;;;;5277543;27;20037;-95
2021/01/13 04:17:04;;;;;;;2.67;1.62;;;12.40;99.90;;;;;;5262230;27;20030;-93
2021/01/13 04:19:37;;;;;;;3.08;1.90;;;12.60;99.90;;;;;;5260385;27;20016;-94
2021/01/13 04:22:14;;;;;;;2.10;1.70;;;12.20;99.90;;;;;;5275950;27;20056;-95
2021/01/13 04:24:51;;;;;;;3.92;1.90;;;12.30;99.90;;;;;;5257546;27;20450;-95
2021/01/13 04:27:23;;;;;;;9.10;2.53;;;12.30;99.90;;;;;;5257579;27;20243;-91
2021/01/13 04:29:56;;;;;;;3.15;2.22;;;12.20;99.90;;;;;;5257345;27;20040;-94
2021/01/13 04:32:24;;;;;;;3.37;2.00;;;12.10;99.90;;;;;;5256679;27;20277;-95
2021/01/13 04:34:52;;;;;;;4.32;2.00;;;12.20;99.90;;;;;;5256409;27;20041;-93
2021/01/13 04:37:31;;;;;;;4.53;2.00;;;;;;;;;;5257762;27;20415;-96
2021/01/13 04:40:18;;;;;;;6.85;2.20;;;12.00;99.90;;;;;;5260929;27;20076;-94
2021/01/13 04:43:05;;;;;;;7.78;1.98;;;12.20;99.90;;;;;;5259806;27;20040;-95
2021/01/13 04:45:44;;;;;;;5.43;1.80;;;12.80;99.90;;;;;;5257478;27;20061;-95
2021/01/13 04:48:19;;;;;;;4.80;2.00;;;12.10;99.90;;;;;;5260211;27;20340;-96
2021/01/13 04:50:53;;;;;;;4.75;2.00;;;12.00;99.90;;;;;;5258824;27;20052;-95
2021/01/13 04:53:28;;;;;;;3.20;2.22;;;11.80;99.90;;;;;;5259240;27;20026;-95
2021/01/13 04:56:09;;;;;;;5.72;2.00;;;12.00;99.90;;;;;;5261123;27;20030;-94
2021/01/13 04:59:17;;;;;;;7.47;2.03;;;12.00;99.90;;;;;;5258460;27;20390;-96
2021/01/13 05:02:08;;;;;;;4.40;2.42;;;12.00;99.90;;;;;;5277604;27;20034;-95
2021/01/13 05:04:52;;;;;;;7.25;2.03;;;;;;;;;;5260003;27;20472;-94
2021/01/13 05:07:37;;;;;;;5.40;1.70;;;11.90;99.90;;;;;;5278720;27;20131;-96
2021/01/13 05:10:19;;;;;;;3.40;1.98;;;12.00;99.90;;;;;;5272326;27;20036;-96
2021/01/13 05:13:00;;;;;;;3.47;1.48;;;12.10;99.90;;;;;;5264562;27;20358;-95
2021/01/13 05:15:31;;;;;;;1.87;1.67;;;12.00;99.90;;;;;;5269159;27;20023;-95
2021/01/13 05:18:44;;;;;;;5.22;2.22;;;12.00;99.90;;;;;;5254415;27;20315;-96
2021/01/13 05:21:27;;;;;;;3.47;1.75;;;12.20;99.90;;;;;;5235090;27;20011;-94
2021/01/13 05:24:02;;;;;;;4.32;1.52;;;11.90;99.90;;;;;;5249783;27;20030;-96
2021/01/13 05:26:31;;;;;;;1.70;1.30;;;11.90;99.90;;;;;;5251637;27;20367;-95
2021/01/13 05:29:27;;;;;;;5.05;1.37;;;11.90;99.90;;;;;;5252114;27;20038;-96
2021/01/13 05:31:55;;;;;;;;;;;11.70;99.90;;;;;;5252530;27;20418;-95
2021/01/13 05:34:23;;;;;;;3.17;1.50;;;11.80;99.90;;;;;;5252749;27;19944;-95
2021/01/13 05:37:05;;;;;;;1.70;1.60;;;;;;;;;;5254132;27;20032;-93
2021/01/13 05:39:35;;;;;;;3.25;1.50;;;11.70;99.90;;;;;;5254087;27;20025;-94
2021/01/13 05:42:06;;;;;;;2.60;2.00;;;;;;;;;;5250465;27;20446;-94
2021/01/13 05:44:35;;;;;;;2.78;1.90;;;;;;;;;;5256863;27;20022;-94
2021/01/13 05:47:06;;;;;;;5.07;1.58;;;;;;;;;;5257067;27;20498;-95
2021/01/13 05:49:35;;;;;;;4.40;1.75;;;;;;;;;;5255915;27;20035;-95
2021/01/13 05:52:09;;;;;;;6.93;1.52;;;;;;;;;;5249427;27;20069;-94
2021/01/13 05:54:38;;;;;;;3.35;1.50;;;;;;;;;;5252888;27;20057;-94
2021/01/13 05:57:15;;;;;;;7.30;1.90;;;;;;;;;;5251770;27;20061;-94
2021/01/13 05:59:59;;;;;;;1.85;1.10;;;;;;;;;;5254198;27;20057;-96
2021/01/13 06:02:40;;;;;;;4.12;1.30;;;;;;;;;;5249825;27;20036;-96
2021/01/13 06:05:11;;;;;;;1.23;1.00;;;;;;;;;;5250053;27;20025;-94
2021/01/13 06:07:42;;;;;;;5.75;1.40;;;;;;;;;;5252876;27;20026;-95
2021/01/13 06:10:17;;;;;;;2.15;1.30;;;;;;;;;;5249188;27;20031;-94
2021/01/13 06:12:49;;;;;;;3.58;1.62;;;;;;;;;;5257601;27;20029;-96
2021/01/13 06:15:24;;;;;;;4.45;1.23;;;;;;;;;;5259490;27;20033;-95
2021/01/13 06:17:58;;;;;;;9.80;1.62;;;;;;;;;;5260228;27;20029;-96
2021/01/13 06:20:28;;;;;;;3.37;1.00;;;;;;;;;;5257424;27;20025;-94
2021/01/13 06:23:17;;;;;;;8.15;1.27;;;;;;;;;;5252230;27;20017;-95
2021/01/13 06:25:52;;;;;;;2.28;1.08;;;;;;;;;;5257995;27;20037;-94
2021/01/13 06:28:28;;;;;;;4.10;1.48;;;;;;;;;;5260201;27;20025;-96
2021/01/13 06:31:06;;;;;;;4.10;1.10;;;;;;;;;;5259218;27;20032;-95
2021/01/13 06:33:58;;;;;;;2.03;1.00;;;;;;;;;;5258832;27;20040;-96
2021/01/13 06:36:48;;;;;;;2.03;1.27;;;;;;;;;;5277537;27;20026;-94
2021/01/13 06:39:19;;;;;;;13.15;1.58;;;;;;;;;;5278598;27;20033;-94
2021/01/13 06:41:52;;;;;;;1.10;1.10;;;;;;;;;;5262076;27;20044;-96
2021/01/13 06:44:22;;;;;;;6.97;1.20;;;;;;;;;;5280673;27;20120;-96
2021/01/13 06:46:53;;;;;;;3.05;1.10;;;;;;;;;;5262840;27;20009;-94
2021/01/13 06:49:29;;;;;;;2.75;0.80;;;;;;;;;;5262815;27;20358;-94
2021/01/13 06:51:59;;;;;;;5.37;1.08;;;;;;;;;;5262878;27;20053;-96
2021/01/13 06:54:45;;;;;;;3.62;1.33;;;;;;;;;;5282708;27;20023;-95
2021/01/13 06:57:26;;;;;;;2.45;1.60;;;;;;;;;;5264327;27;20025;-94
2021/01/13 07:00:00;;;;;;;3.70;1.83;;;;;;;;;;5263906;27;20028;-93
2021/01/13 07:02:30;;;;;;;10.18;1.80;;;;;;;;;;5281008;27;20801;-94
2021/01/13 07:05:02;;;;;;;4.32;1.80;;;;;;;;;;5264052;27;20021;-94
2021/01/13 07:07:43;;;;;;;1.23;1.12;;;;;;;;;;5280847;27;20033;-94
2021/01/13 07:10:12;;;;;;;3.53;1.40;;;;;;;;;;5264497;27;20144;-94
2021/01/13 07:12:41;;;;;;;4.62;1.33;;;;;;;;;;5264282;27;20017;-95
2021/01/13 07:15:12;;;;;;;5.90;1.90;;;;;;;;;;5262594;27;20029;-96
2021/01/13 07:17:41;;;;;;;8.05;1.30;;;;;;;;;;5281078;27;20017;-96
2021/01/13 07:20:13;;;;;;;1.62;1.35;;;;;;;;;;5264536;27;20105;-94
2021/01/13 07:23:02;;;;;;;2.53;1.10;;;;;;;;;;5267577;27;20359;-96
2021/01/13 07:25:33;;;;;;;3.33;1.48;;;;;;;;;;5261181;27;20018;-96
2021/01/13 07:28:08;;;;;;;3.22;1.10;;;;;;;;;;5261102;27;20032;-95
2021/01/13 07:30:36;;;;;;;2.12;1.30;;;;;;;;;;5257348;27;20073;-93
2021/01/13 07:33:10;;;;;;;1.75;1.55;;;;;;;;;;5277836;27;20448;-93
2021/01/13 07:35:45;;;;;;;2.35;1.12;;;;;;;;;;5257799;27;20072;-95
2021/01/13 07:38:19;;;;;;;2.65;1.30;;;;;;;;;;5277089;27;20031;-96
2021/01/13 07:40:58;;;;;;;2.92;1.17;;;;;;;;;;5275984;27;20378;-94
2021/01/13 07:43:38;;;;;;;2.80;1.23;;;;;;;;;;5257648;27;20053;-93
2021/01/13 07:46:08;;;;;;;1.73;1.20;;;;;;;;;;5273564;27;20091;-95
2021/01/13 07:48:52;;;;;;;2.97;1.00;;;;;;;;;;5259231;27;20029;-94
2021/01/13 07:51:29;;;;;;;4.15;1.70;;;;;;;;;;5258497;27;20077;-93
2021/01/13 07:54:06;;;;;;;3.97;1.30;;;;;;;;;;5273338;27;20029;-95
2021/01/13 07:56:43;;;;;;;3.78;1.12;;;;;;;;;;5259568;27;20043;-94
2021/01/13 07:59:29;;;;;;;1.98;1.27;;;;;;;;;;5274075;27;20033;-93
2021/01/13 08:02:14;;;;;;;3.58;1.33;;;;;;;;;;5275518;27;20071;-92
2021/01/13 08:05:15;;;;;;;3.95;1.55;;;;;;;;;;5257410;27;20043;-95
2021/01/13 08:08:05;;;;;;;6.00;1.50;;;;;;;;;;5262787;27;20409;-94
2021/01/13 08:10:45;;;;;;;6.80;1.12;;;10.70;99.90;;;;;;5257582;27;20025;-96
2021/01/13 08:13:53;;;;;;;3.83;1.42;;;10.80;99.90;;;;;;5259694;27;20025;-95
2021/01/13 08:16:58;;;;;;;4.25;1.35;;;10.90;99.90;;;;;;5208688;27;20082;-95
2021/01/13 08:20:04;;;;;;;1.50;1.40;;;11.20;99.90;;;;;;5260632;27;20033;-96
2021/01/13 08:22:34;;;;;;;4.37;1.40;;;13.10;99.90;;;;;;5260373;27;20073;-96
2021/01/13 08:25:12;;;;;;;5.18;1.73;;;14.80;99.90;;;;;;5277828;27;20050;-94
2021/01/13 08:27:58;;;;;;;2.15;1.75;;;15.50;99.90;;;;;;5259012;27;20580;-96
2021/01/13 08:30:46;;;;;;;11.85;9.63;;;16.80;99.90;;;;;;5263542;27;20033;-96
2021/01/13 08:33:24;;;;;;;3.80;1.27;;;18.30;99.90;;;;;;5261320;27;20034;-96
2021/01/13 08:36:13;;;;;;;2.67;1.65;;;19.10;98.50;;;;;;5260712;27;20037;-96
2021/01/13 08:39:05;;;;;;;3.58;3.30;;;19.30;90.80;;;;;;5275592;27;20336;-95
2021/01/13 08:41:41;;;;;;;2.70;2.60;;;20.00;91.50;;;;;;5274852;27;20029;-94
2021/01/13 08:44:17;;;;;;;2.15;1.60;;;20.70;86.90;;;;;;5277589;27;20085;-93
2021/01/13 08:47:06;;;;;;;5.03;1.65;;;21.40;82.30;;;;;;5281922;27;20025;-96
2021/01/13 08:49:34;;;;;;;3.00;0.98;;;21.50;83.40;;;;;;5261695;27;20435;-94
2021/01/13 08:52:14;;;;;;;1.67;0.98;;;21.50;78.70;;;;;;5279640;27;20025;-96
2021/01/13 08:54:48;;;;;;;3.22;2.22;;;20.60;79.60;;;;;;5278124;27;20025;-96
2021/01/13 08:57:26;;;;;;;2.60;2.20;;;21.50;81.80;;;;;;5260716;27;20049;-96
2021/01/13 09:00:03;;;;;;;4.53;1.92;;;23.10;76.40;;;;;;5241827;27;20492;-96
2021/01/13 09:03:15;;;;;;;3.78;1.87;;;24.40;71.60;;;;;;5261267;27;20025;-96
2021/01/13 09:05:43;;;;;;;1.92;1.77;;;26.10;66.20;;;;;;5262311;27;20399;-95
2021/01/13 09:08:32;;;;;;;2.20;2.00;;;27.30;61.50;;;;;;5277309;27;20406;-95
2021/01/13 09:11:03;;;;;;;2.45;0.88;;;28.10;57.70;;;;;;5274113;27;20097;-96
2021/01/13 09:13:44;;;;;;;2.40;0.82;;;27.70;54.70;;;;;;5258657;27;20033;-95
2021/01/13 09:16:32;;;;;;;2.85;1.90;;;28.30;52.30;;;;;;5273851;27;20037;-96
2021/01/13 09:19:10;;;;;;;3.35;2.53;;;27.90;54.70;;;;;;5257593;27;20114;-96
2021/01/13 09:21:42;;;;;;;0.75;0.62;;;27.60;54.40;;;;;;5254687;27;20026;-95
2021/01/13 09:24:18;;;;;;;2.70;0.65;;;27.70;51.50;;;;;;5273730;27;20030;-95
2021/01/13 09:26:56;;;;;;;6.40;2.17;;;27.30;51.60;;;;;;5256461;27;20359;-95
2021/01/13 09:30:12;;;;;;;6.55;1.12;;;26.20;55.90;;;;;;5276088;27;20374;-95
2021/01/13 09:32:55;;;;;;;2.53;1.00;;;25.30;55.30;;;;;;5269585;27;20056;-96
2021/01/13 09:35:29;;;;;;;1.23;0.70;;;24.60;57.80;;;;;;5256205;27;20507;-96
2021/01/13 09:38:06;;;;;;;3.78;0.90;;;24.50;59.80;;;;;;5274454;27;20059;-95
2021/01/13 09:40:56;;;;;;;5.72;0.90;;;25.30;56.80;;;;;;5274358;27;20048;-96
2021/01/13 09:43:37;;;;;;;1.12;0.80;;;23.70;60.80;;;;;;5274630;27;20077;-96
2021/01/13 09:46:10;;;;;;;3.22;2.92;;;22.00;67.40;;;;;;5274457;27;20065;-95
2021/01/13 09:49:13;;;;;;;3.58;3.30;;;24.40;67.10;;;;;;5256776;27;20057;-95
2021/01/13 09:51:45;;;;;;;4.40;3.17;;;27.80;58.40;;;;;;5255421;27;20025;-96
2021/01/13 09:54:14;;;;;;;3.58;3.00;;;28.70;53.80;;;;;;5254802;27;20025;-95
2021/01/13 09:56:53;;;;;;;2.80;2.60;;;30.50;48.80;;;;;;5255381;27;20025;-96
2021/01/13 09:59:25;;;;;;;4.30;2.30;;;31.20;47.10;;;;;;5258578;27;20065;-96
2021/01/13 10:01:57;;;;;;;2.62;2.42;;;30.20;47.70;;;;;;5275157;27;20064;-93
2021/01/13 10:04:26;;;;;;;3.42;2.28;;;32.50;45.10;;;;;;5257546;27;20049;-96
2021/01/13 10:07:03;;;;;;;6.20;2.75;;;33.40;41.60;;;;;;5273727;27;20017;-95
2021/01/13 10:09:37;;;;;;;2.90;2.25;;;34.30;37.10;;;;;;5256400;27;20098;-96
2021/01/13 10:12:08;;;;;;;2.92;2.40;;;34.70;35.30;;;;;;5273262;27;20029;-96
2021/01/13 10:14:51;;;;;;;2.33;0.65;;;34.90;34.20;;;;;;5254839;27;20066;-95
2021/01/13 10:17:26;;;;;;;1.30;0.63;;;32.70;33.80;;;;;;5257295;27;20048;-96
2021/01/13 10:20:37;;;;;;;2.67;0.80;;;27.90;40.30;;;;;;5255868;27;20040;-96
2021/01/13 10:23:09;;;;;;;4.45;1.85;;;24.80;49.00;;;;;;5256067;27;20030;-96
2021/01/13 10:25:43;;;;;;;3.85;3.55;;;24.50;53.30;;;;;;5255765;27;20087;-96
2021/01/13 10:28:14;;;;;;;3.60;3.30;;;25.20;55.90;;;;;;5256617;27;20029;-96
2021/01/13 10:31:10;;;;;;;3.12;2.85;;;28.30;47.20;;;;;;5258907;27;20022;-95
2021/01/13 10:33:47;;;;;;;2.95;2.65;;;31.20;41.20;;;;;;5271893;27;20547;-95
2021/01/13 10:36:37;;;;;;;1.20;0.70;;;32.70;38.50;;;;;;5255108;27;20247;-96
2021/01/13 10:39:24;;;;;;;2.60;2.33;;;29.50;36.90;;;;;;5256587;27;20422;-96
2021/01/13 10:42:07;;;;;;;2.10;0.80;;;28.10;43.70;;;;;;5257420;27;20020;-95
2021/01/13 10:44:41;;;;;;;2.92;0.93;;;25.70;44.90;;;;;;5273897;27;20030;-96
2021/01/13 10:47:11;;;;;;;2.97;2.25;;;23.60;51.20;;;;;;5257428;27;20411;-96
2021/01/13 10:49:47;;;;;;;4.18;0.93;;;23.80;54.80;;;;;;5257469;27;20431;-96
2021/01/13 10:52:24;;;;;;;2.78;1.02;;;25.00;48.30;;;;;;5257716;27;20044;-96
2021/01/13 10:54:52;;;;;;;3.30;2.60;;;23.30;53.30;;;;;;5256017;27;20030;-95
2021/01/13 10:57:35;;;;;;;0.85;0.80;;;23.70;56.20;;;;;;5255817;27;20038;-96
2021/01/13 11:00:10;;;;;;;0.80;0.80;;;22.50;54.30;;;;;;5257177;27;20022;-95
2021/01/13 11:02:59;;;;;;;4.50;0.88;;;21.70;58.50;;;;;;5257633;27;20032;-95
2021/01/13 11:05:39;;;;;;;1.55;0.70;;;22.50;53.80;;;;;;5256248;27;20025;-96
2021/01/13 11:08:19;;;;;;;3.30;3.10;;;21.70;57.40;;;;;;5256755;27;20086;-95
2021/01/13 11:10:53;;;;;;;2.65;0.68;;;23.90;57.90;;;;;;5255902;27;20026;-96
2021/01/13 11:13:30;;;;;;;3.03;0.80;;;24.10;50.80;;;;;;5275995;27;20555;-96
2021/01/13 11:16:07;;;;;;;1.85;0.85;;;22.30;55.90;;;;;;5255800;27;20057;-96
2021/01/13 11:18:41;;;;;;;1.80;0.95;;;21.30;59.80;;;;;;5257458;27;20044;-96
2021/01/13 11:21:16;;;;;;;4.55;1.10;;;20.70;64.00;;;;;;5273228;27;20029;-96
2021/01/13 11:23:47;;;;;;;1.67;1.00;;;;;;;;;;5255703;27;20033;-96
2021/01/13 11:26:16;;;;;;;2.75;1.55;;;20.80;72.20;;;;;;5254623;27;20562;-95
2021/01/13 11:29:07;;;;;;;5.60;3.47;;;23.80;59.30;;;;;;5254896;27;20032;-95
2021/01/13 11:31:50;;;;;;;2.72;1.00;;;24.90;54.60;;;;;;5257708;27;20026;-96
2021/01/13 11:34:24;;;;;;;2.97;0.87;;;25.10;48.50;;;;;;5255531;27;20022;-95
2021/01/13 11:37:08;;;;;;;1.98;1.87;;;23.90;46.80;;;;;;5271354;27;20039;-96
2021/01/13 11:39:46;;;;;;;3.03;2.58;;;23.80;50.10;;;;;;5272375;27;20398;-95
2021/01/13 11:43:06;;;;;;;1.27;1.00;;;27.60;45.00;;;;;;5256395;27;20065;-94
2021/01/13 11:45:48;;;;;;;3.10;2.53;;;26.00;41.40;;;;;;5255151;27;20040;-96
2021/01/13 11:48:30;;;;;;;2.35;1.95;;;27.20;39.90;;;;;;5274588;27;20017;-96
2021/01/13 11:51:01;;;;;;;5.22;2.30;;;28.60;37.30;;;;;;5253989;27;20035;-96
2021/01/13 11:53:37;;;;;;;2.20;2.00;;;30.20;34.40;;;;;;5253765;27;20073;-95
2021/01/13 11:56:10;;;;;;;3.80;1.73;;;29.70;32.90;;;;;;5273626;27;20025;-95
2021/01/13 11:58:46;;;;;;;4.95;1.70;;;29.80;34.10;;;;;;5272526;27;20038;-95
2021/01/13 12:01:20;;;;;;;6.10;1.87;;;30.60;32.90;;;;;;5275153;27;20021;-96
2021/01/13 12:04:03;;;;;;;3.25;1.70;;;31.50;30.60;;;;;;5275156;27;20040;-95
2021/01/13 12:06:38;;;;;;;4.07;1.70;;;31.40;29.70;;;;;;5257501;27;20025;-96
2021/01/13 12:09:21;;;;;;;7.40;1.95;;;31.90;30.00;;;;;;5256679;27;20462;-95
2021/01/13 12:11:49;;;;;;;3.70;1.60;;;29.50;30.90;;;;;;5273390;27;20477;-96
2021/01/13 12:14:22;;;;;;;4.10;1.60;;;28.40;29.60;;;;;;5274771;27;20040;-95
2021/01/13 12:17:05;;;;;;;2.65;1.40;;;28.40;30.00;;;;;;5274349;27;20370;-96
2021/01/13 12:19:38;;;;;;;2.87;1.40;;;28.10;30.30;;;;;;5256655;27;20038;-95
2021/01/13 12:22:07;;;;;;;2.17;1.40;;;30.10;29.50;;;;;;5255576;27;20418;-96
2021/01/13 12:24:42;;;;;;;2.12;1.48;;;28.70;27.10;;;;;;5274313;27;20040;-96
2021/01/13 12:27:25;;;;;;;2.30;1.30;;;31.10;27.70;;;;;;5274527;27;20022;-96
2021/01/13 12:30:16;;;;;;;3.72;1.58;;;32.20;25.60;;;;;;5256500;27;20070;-95
2021/01/13 12:32:48;;;;;;;7.03;1.75;;;31.30;26.30;;;;;;5256901;27;20415;-95
2021/01/13 12:35:19;;;;;;;1.58;1.20;;;30.20;27.10;;;;;;5256015;27;20036;-95
2021/01/13 12:37:54;;;;;;;1.27;1.17;;;31.30;25.80;;;;;;5257054;27;20026;-94
2021/01/13 12:40:36;;;;;;;2.50;1.20;;;29.30;23.00;;;;;;5256894;27;20457;-95
2021/01/13 12:43:13;;;;;;;3.00;1.45;;;28.60;24.40;;;;;;5255819;27;20057;-96
2021/01/13 12:45:43;;;;;;;2.85;0.90;;;29.10;24.70;;;;;;5276507;27;20032;-96
2021/01/13 12:48:12;;;;;;;5.78;1.27;;;29.10;24.60;;;;;;5256758;27;20033;-95
2021/01/13 12:50:41;;;;;;;2.55;0.95;;;27.80;24.20;;;;;;5254476;27;20112;-95
2021/01/13 12:53:12;;;;;;;6.82;1.05;;;26.00;25.50;;;;;;5272919;27;20034;-94
2021/01/13 12:55:42;;;;;;;6.00;0.98;;;25.30;29.10;;;;;;5274190;27;20424;-94
2021/01/13 12:58:17;;;;;;;5.78;0.80;;;25.50;28.90;;;;;;5257765;27;20065;-94
2021/01/13 13:00:51;;;;;;;3.58;0.93;;;24.50;29.00;;;;;;5257102;27;20036;-96
2021/01/13 13:03:33;;;;;;;1.98;0.80;;;23.00;30.00;;;;;;5258600;27;20049;-96
2021/01/13 13:06:01;;;;;;;1.62;0.50;;;22.40;32.70;;;;;;5260412;27;20337;-96
2021/01/13 13:08:35;;;;;;;22.02;1.25;;;22.50;32.20;;;;;;5277831;27;20040;-96
2021/01/13 13:11:12;;;;;;;2.55;0.68;;;22.60;33.80;;;;;;5263425;27;20040;-96
2021/01/13 13:13:43;;;;;;;8.27;0.93;;;22.60;32.60;;;;;;5275387;27;20033;-96
2021/01/13 13:16:22;;;;;;;3.85;1.20;;;23.00;31.30;;;;;;5258545;27;20033;-96
2021/01/13 13:19:04;;;;;;;2.78;0.77;;;22.60;33.80;;;;;;5256727;27;20059;-95
2021/01/13 13:21:45;;;;;;;3.55;0.80;;;22.00;35.80;;;;;;5254544;27;20049;-96
2021/01/13 13:24:14;;;;;;;2.67;0.95;;;21.80;36.40;;;;;;5256313;27;20427;-95
2021/01/13 13:26:45;;;;;;;5.78;0.80;;;21.10;38.00;;;;;;5274848;27;20026;-95
2021/01/13 13:29:15;;;;;;;2.42;0.70;;;20.70;37.90;;;;;;5260342;27;20388;-96
2021/01/13 13:31:53;;;;;;;2.65;0.65;;;20.70;37.10;;;;;;5279902;27;20045;-96
2021/01/13 13:34:25;;;;;;;2.22;0.60;;;21.10;39.00;;;;;;5262327;27;20097;-96
2021/01/13 13:37:00;;;;;;;1.45;0.60;;;20.90;36.60;;;;;;5262078;27;20030;-96
2021/01/13 13:39:28;;;;;;;1.85;0.82;;;20.90;36.00;;;;;;5261401;27;20033;-96
2021/01/13 13:42:01;;;;;;;2.97;0.90;;;20.50;35.70;;;;;;5263082;27;20022;-96
2021/01/13 13:44:31;;;;;;;7.87;1.10;;;20.70;37.70;;;;;;5279982;27;20266;-95
2021/01/13 13:47:03;;;;;;;2.50;0.98;;;20.40;38.50;;;;;;5261747;27;20048;-96
2021/01/13 13:49:31;;;;;;;5.57;1.27;;;20.20;37.30;;;;;;5274764;27;20040;-96
2021/01/13 13:52:06;;;;;;;6.68;0.90;;;19.80;37.60;;;;;;5258439;27;20040;-96
2021/01/13 13:54:38;;;;;;;3.60;0.68;;;20.00;37.80;;;;;;5280158;27;20465;-96
2021/01/13 13:57:07;;;;;;;3.85;0.68;;;20.20;39.00;;;;;;5293145;27;20016;-95
2021/01/13 13:59:35;;;;;;;2.87;0.55;;;20.50;37.70;;;;;;5295798;27;20037;-96